Time;durP1;ratioP1;P1;durP2;ratioP2;P2;SDS_P1;SDS_P2;PMS_P1;PMS_P2;Temp;Humidity;BMP_temperature;BMP_pressure;BME280_temperature;BME280_humidity;BME280_pressure;Samples;Min_cycle;Max_cycle;Signal;HPM_P1;HPM_P2
2021/08/30 00:00:59;;;;;;;10.70;8.75;;;;;;;21.12;100.00;100330.42;1743794;82;21147;-85
2021/08/30 00:03:25;;;;;;;11.40;8.70;;;;;;;21.08;100.00;100333.88;1743678;82;21542;-86
2021/08/30 00:05:52;;;;;;;9.35;8.30;;;;;;;21.05;100.00;100342.14;1744168;82;20929;-85
2021/08/30 00:08:20;;;;;;;12.40;8.60;;;;;;;21.04;100.00;100344.94;1743303;82;20993;-85
2021/08/30 00:10:48;;;;;;;10.70;8.70;;;;;;;21.02;100.00;100342.50;1743850;82;21499;-88
2021/08/30 00:13:16;;;;;;;10.18;8.55;;;;;;;21.02;100.00;100346.95;1743568;82;21489;-87
2021/08/30 00:15:44;;;;;;;10.53;8.60;;;;;;;21.00;100.00;100348.92;1745579;79;20914;-86
2021/08/30 00:18:11;;;;;;;9.88;8.35;;;;;;;20.99;100.00;100351.26;1755850;81;20883;-86
2021/08/30 00:20:39;;;;;;;10.30;7.87;;;;;;;20.96;100.00;100353.72;1755802;81;20962;-88
2021/08/30 00:23:06;;;;;;;11.70;8.13;;;;;;;20.94;100.00;100354.91;1755555;81;20950;-92
2021/08/30 00:25:33;;;;;;;10.45;8.70;;;;;;;20.91;100.00;100358.72;1755653;81;21501;-85
2021/08/30 00:27:59;;;;;;;9.78;8.65;;;;;;;20.91;100.00;100361.36;1755753;81;21442;-88
2021/08/30 00:30:27;;;;;;;12.65;8.55;;;;;;;20.88;100.00;100360.88;1755516;81;20966;-92
2021/08/30 00:32:55;;;;;;;8.65;7.62;;;;;;;20.84;100.00;100352.49;1755791;81;20934;-87
2021/08/30 00:35:22;;;;;;;12.78;7.53;;;;;;;20.82;100.00;100364.22;1756326;81;20932;-88
2021/08/30 00:37:50;;;;;;;9.70;8.70;;;;;;;20.80;100.00;100372.81;1755444;81;22135;-86
2021/08/30 00:40:17;;;;;;;9.80;7.67;;;;;;;20.76;100.00;100368.87;1755576;81;20986;-85
2021/08/30 00:42:45;;;;;;;9.63;8.38;;;;;;;20.71;100.00;100372.02;1755900;80;20979;-84
2021/08/30 00:45:13;;;;;;;10.18;8.68;;;;;;;20.67;100.00;100362.01;1755621;81;21818;-88
2021/08/30 00:47:43;;;;;;;12.30;8.90;;;;;;;20.65;100.00;100371.89;1755983;81;21090;-87
2021/08/30 00:50:13;;;;;;;10.30;8.28;;;;;;;20.61;100.00;100370.13;1755776;81;21139;-87
2021/08/30 00:52:42;;;;;;;16.25;8.55;;;;;;;20.61;100.00;100387.26;1755700;81;20931;-84
2021/08/30 00:55:09;;;;;;;9.78;8.78;;;;;;;20.57;100.00;100386.78;1755615;81;20955;-82
2021/08/30 00:57:35;;;;;;;9.68;7.80;;;;;;;20.57;100.00;100392.55;1736169;81;20926;-86
2021/08/30 01:00:04;;;;;;;9.20;7.80;;;;;;;20.54;100.00;100391.08;1755546;81;20906;-85
2021/08/30 01:02:32;;;;;;;12.23;9.03;;;;;;;20.50;100.00;100392.41;1755671;81;21134;-87
2021/08/30 01:04:59;;;;;;;10.32;7.72;;;;;;;20.48;100.00;100386.50;1755724;81;20872;-88
2021/08/30 01:07:59;;;;;;;9.90;8.88;;;;;;;20.44;100.00;100383.87;1755581;81;21053;-78
2021/08/30 01:10:55;;;;;;;9.48;8.48;;;;;;;20.40;100.00;100381.73;1755353;81;21481;-86
2021/08/30 01:13:34;;;;;;;10.40;8.90;;;;;;;20.37;100.00;100377.62;1755601;81;21084;-84
2021/08/30 01:16:03;;;;;;;11.80;8.60;;;;;;;20.33;100.00;100378.95;1755678;81;21168;-87
2021/08/30 01:18:32;;;;;;;9.60;8.55;;;;;;;20.30;100.00;100383.74;1734956;81;20973;-88
2021/08/30 01:21:24;;;;;;;9.93;8.90;;;;;;;20.28;100.00;100387.88;1755648;81;21029;-87
2021/08/30 01:24:02;;;;;;;11.20;8.88;;;;;;;20.27;100.00;100391.50;1755787;81;20971;-84
2021/08/30 01:26:33;;;;;;;12.73;8.75;;;;;;;20.26;100.00;100395.61;1755761;81;21069;-89
2021/08/30 01:29:17;;;;;;;11.35;8.20;;;;;;;20.24;100.00;100392.30;1755080;81;21152;-88
2021/08/30 01:32:29;;;;;;;10.65;8.43;;;;;;;20.25;100.00;100392.14;1754959;80;20902;-86
2021/08/30 01:34:58;;;;;;;12.03;8.97;;;;;;;20.27;100.00;100390.67;1755826;81;20935;-85
2021/08/30 01:37:25;;;;;;;12.07;9.75;;;;;;;20.24;100.00;100387.86;1755588;81;21028;-87
2021/08/30 01:39:53;;;;;;;9.35;8.33;;;;;;;20.19;100.00;100374.38;1755439;81;20970;-83
2021/08/30 01:42:22;;;;;;;13.13;8.95;;;;;;;20.15;100.00;100371.75;1755785;81;21142;-87
2021/08/30 01:44:48;;;;;;;9.03;8.13;;;;;;;20.15;100.00;100372.23;1755024;81;20918;-88
2021/08/30 01:47:17;;;;;;;11.20;9.25;;;;;;;20.14;100.00;100373.22;1736441;81;20923;-82
2021/08/30 01:49:47;;;;;;;8.88;7.92;;;;;;;20.11;100.00;100380.15;1755638;81;21040;-89
2021/08/30 01:52:17;;;;;;;12.50;8.13;;;;;;;20.05;100.00;100381.16;1736469;81;21129;-91
2021/08/30 01:54:44;;;;;;;11.70;8.03;;;;;;;20.02;100.00;100389.89;1755599;81;22389;-90
2021/08/30 01:57:20;;;;;;;10.38;8.70;;;;;;;19.98;100.00;100389.41;1755378;81;20938;-89
2021/08/30 02:02:31;;;;;;;11.03;8.53;;;;;;;19.94;100.00;100374.12;1755328;81;21540;-86
2021/08/30 02:04:57;;;;;;;13.85;8.48;;;;;;;19.91;100.00;100377.09;1736356;81;21049;-89
2021/08/30 02:07:25;;;;;;;10.35;7.97;;;;;;;19.89;100.00;100367.20;1755472;81;21210;-83
2021/08/30 02:09:51;;;;;;;9.55;8.05;;;;;;;19.85;100.00;100374.61;1734854;81;20953;-85
2021/08/30 02:12:17;;;;;;;14.63;8.05;;;;;;;19.83;100.00;100369.20;1755512;81;21046;-84
2021/08/30 02:14:44;;;;;;;11.97;8.55;;;;;;;19.78;100.00;100376.30;1755542;81;21009;-89
2021/08/30 02:17:14;;;;;;;9.08;7.60;;;;;;;19.75;100.00;100378.44;1760588;81;20940;-91
2021/08/30 02:19:46;;;;;;;8.35;7.53;;;;;;;19.75;100.00;100381.87;1767823;81;21166;-88
2021/08/30 02:22:19;;;;;;;8.40;7.50;;;;;;;19.75;100.00;100381.87;1765390;81;21031;-81
2021/08/30 02:24:53;;;;;;;8.90;8.00;;;;;;;19.76;100.00;100386.64;1767496;81;21506;-85
2021/08/30 02:27:27;;;;;;;11.55;7.92;;;;;;;19.73;100.00;100385.66;1767579;81;20992;-86
2021/08/30 02:30:11;;;;;;;9.33;7.72;;;;;;;19.69;100.00;100381.74;1743827;81;20928;-81
2021/08/30 02:32:38;;;;;;;8.45;7.53;;;;;;;19.63;100.00;100379.75;1769036;81;21144;-88
2021/08/30 02:35:07;;;;;;;11.90;7.83;;;;;;;19.59;100.00;100383.72;1743627;81;21716;-83
2021/08/30 02:37:37;;;;;;;10.85;7.72;;;;;;;19.58;100.00;100396.55;1767490;81;20857;-89
2021/08/30 02:40:08;;;;;;;12.23;6.95;;;;;;;19.59;100.00;100401.66;1767436;81;20908;-84
2021/08/30 02:42:34;;;;;;;9.93;7.60;;;;;;;19.60;100.00;100406.41;1743291;81;21510;-83
2021/08/30 02:45:03;;;;;;;8.00;6.72;;;;;;;19.59;100.00;100416.14;1744094;81;21141;-89
2021/08/30 02:47:30;;;;;;;7.67;6.87;;;;;;;19.58;100.00;100418.43;1767624;81;21018;-90
2021/08/30 02:49:56;;;;;;;7.97;6.70;;;;;;;19.59;100.00;100415.31;1744524;81;21523;-87
2021/08/30 02:52:24;;;;;;;8.40;7.55;;;;;;;19.60;100.00;100411.67;1767457;81;20956;-87
2021/08/30 02:54:52;;;;;;;7.53;6.70;;;;;;;19.59;100.00;100417.45;1767916;81;20885;-91
2021/08/30 02:57:19;;;;;;;8.38;7.60;;;;;;;19.58;100.00;100417.60;1743646;81;21146;-84
2021/08/30 02:59:45;;;;;;;8.50;7.60;;;;;;;19.54;100.00;100425.00;1767496;81;20885;-84
2021/08/30 03:02:12;;;;;;;8.63;6.92;;;;;;;19.50;100.00;100432.41;1767452;81;21515;-88
2021/08/30 03:04:38;;;;;;;7.70;6.90;;;;;;;19.51;100.00;100433.23;1768002;81;20972;-83
2021/08/30 03:07:06;;;;;;;8.45;6.40;;;;;;;19.50;100.00;100427.63;1767546;81;21070;-85
2021/08/30 03:09:33;;;;;;;7.85;7.05;;;;;;;19.52;100.00;100429.13;1767815;81;21168;-87
2021/08/30 03:12:02;;;;;;;7.15;6.53;;;;;;;19.56;100.00;100429.59;1743859;81;21443;-85
2021/08/30 03:14:33;;;;;;;8.13;6.37;;;;;;;19.53;100.00;100439.97;1743778;81;21574;-95
2021/08/30 03:17:08;;;;;;;8.48;6.58;;;;;;;19.50;100.00;100443.42;1760634;81;21405;-86
2021/08/30 03:19:41;;;;;;;10.10;6.47;;;;;;;19.50;100.00;100442.10;1744068;82;21124;-81
2021/08/30 03:22:11;;;;;;;7.60;6.15;;;;;;;19.46;100.00;100438.17;1725927;82;21812;-85
2021/08/30 03:24:43;;;;;;;7.28;6.58;;;;;;;19.44;100.00;100429.11;1743171;82;21504;-81
2021/08/30 03:27:10;;;;;;;9.05;6.78;;;;;;;19.39;100.00;100430.08;1743827;82;20933;-84
2021/08/30 03:29:38;;;;;;;10.23;6.35;;;;;;;19.36;100.00;100439.61;1743697;82;21001;-85
2021/08/30 03:32:09;;;;;;;8.28;6.58;;;;;;;19.37;100.00;100448.30;1743826;82;21035;-88
2021/08/30 03:34:36;;;;;;;7.20;6.50;;;;;;;19.38;100.00;100452.11;1744359;82;22327;-89
2021/08/30 03:37:04;;;;;;;16.02;7.67;;;;;;;19.39;100.00;100451.62;1743574;82;20890;-89
2021/08/30 03:39:30;;;;;;;9.15;7.35;;;;;;;19.41;100.00;100461.51;1723114;82;20933;-87
2021/08/30 03:41:57;;;;;;;12.65;7.78;;;;;;;19.41;100.00;100456.25;1743623;82;20982;-87
2021/08/30 03:44:24;;;;;;;9.40;7.47;;;;;;;19.39;100.00;100459.52;1744099;82;21550;-91
2021/08/30 03:46:54;;;;;;;10.58;9.40;;;;;;;19.40;100.00;100457.25;1724669;82;21204;-83
2021/08/30 03:49:21;;;;;;;12.07;9.65;;;;;;;19.40;100.00;100463.83;1743849;82;20933;-89
2021/08/30 03:51:48;;;;;;;14.95;11.83;;;;;;;19.41;100.00;100462.83;1743732;82;21519;-87
2021/08/30 03:54:14;;;;;;;16.77;12.07;;;;;;;19.43;100.00;100466.13;1749900;82;21044;-89
2021/08/30 03:56:41;;;;;;;21.23;14.23;;;;;;;19.48;100.00;100468.60;1744089;82;20878;-82
2021/08/30 03:59:09;;;;;;;24.52;16.40;;;;;;;19.54;100.00;100465.80;1699092;81;21602;-82
2021/08/30 04:01:40;;;;;;;19.52;14.73;;;;;;;19.56;100.00;100464.34;1705960;84;20933;-84
2021/08/30 04:04:04;;;;;;;13.80;10.82;;;;;;;19.58;100.00;100463.18;1698528;84;21034;-84
2021/08/30 04:06:31;;;;;;;9.40;7.22;;;;;;;19.61;100.00;100465.97;1705888;84;21008;-81
2021/08/30 04:09:01;;;;;;;9.65;7.17;;;;;;;19.62;100.00;100461.88;1705902;84;20891;-82
2021/08/30 04:11:30;;;;;;;7.72;6.62;;;;;;;19.65;100.00;100465.98;1705780;84;21017;-84
2021/08/30 04:13:59;;;;;;;6.87;6.17;;;;;;;19.66;100.00;100472.38;1698817;84;20970;-83
2021/08/30 04:16:28;;;;;;;8.55;5.90;;;;;;;19.68;100.00;100465.16;1707611;84;21080;-83
2021/08/30 04:18:57;;;;;;;7.12;6.42;;;;;;;19.72;100.00;100463.83;1705769;84;20973;-82
2021/08/30 04:21:24;;;;;;;8.28;6.90;;;;;;;19.71;100.00;100458.74;1706093;84;21628;-83
2021/08/30 04:23:51;;;;;;;7.97;6.70;;;;;;;19.69;100.00;100460.72;1705744;84;21155;-77
2021/08/30 04:26:18;;;;;;;7.87;6.47;;;;;;;19.68;100.00;100465.66;1698802;84;21082;-86
2021/08/30 04:28:44;;;;;;;8.83;7.12;;;;;;;19.71;100.00;100464.00;1706049;84;20985;-81
2021/08/30 04:31:11;;;;;;;9.45;6.83;;;;;;;19.75;100.00;100479.29;1706294;84;21576;-86
2021/08/30 04:33:39;;;;;;;7.92;6.80;;;;;;;19.76;100.00;100484.90;1705749;84;20974;-89
2021/08/30 04:36:06;;;;;;;11.20;6.37;;;;;;;19.81;100.00;100491.00;1699122;84;21141;-85
2021/08/30 04:38:34;;;;;;;7.00;6.30;;;;;;;19.86;100.00;100492.14;1706085;84;21045;-81
2021/08/30 04:41:00;;;;;;;8.15;6.45;;;;;;;19.92;100.00;100499.38;1705831;84;21417;-86
2021/08/30 04:43:28;;;;;;;8.78;6.00;;;;;;;19.96;100.00;100493.30;1706347;84;20986;-89
2021/08/30 04:45:55;;;;;;;6.80;5.72;;;;;;;19.97;100.00;100495.75;1699222;84;21029;-81
2021/08/30 04:48:22;;;;;;;7.50;6.65;;;;;;;20.02;100.00;100497.41;1706508;84;21806;-81
2021/08/30 04:50:49;;;;;;;8.60;6.05;;;;;;;20.08;100.00;100507.77;1706399;84;20899;-77
2021/08/30 04:53:15;;;;;;;6.83;6.00;;;;;;;20.14;99.99;100504.47;1705896;84;21001;-88
2021/08/30 04:55:44;;;;;;;8.55;5.67;;;;;;;20.20;99.31;100506.95;1698704;84;21524;-86
2021/08/30 04:58:11;;;;;;;7.47;6.00;;;;;;;20.25;99.18;100513.36;1706676;83;20989;-83
2021/08/30 05:00:39;;;;;;;6.97;6.28;;;;;;;20.31;98.34;100515.84;1707947;84;21135;-86
2021/08/30 05:03:05;;;;;;;7.08;6.37;;;;;;;20.36;97.72;100520.11;1707778;84;21110;-84
2021/08/30 05:05:32;;;;;;;9.93;5.75;;;;;;;20.40;97.20;100520.94;1707921;84;20968;-86
2021/08/30 05:08:00;;;;;;;7.53;6.03;;;;;;;20.45;96.96;100523.88;1707926;84;21463;-91
2021/08/30 05:10:27;;;;;;;6.70;5.72;;;;;;;20.51;96.96;100522.41;1707920;84;21519;-88
2021/08/30 05:12:55;;;;;;;6.83;6.08;;;;;;;20.58;97.13;100524.18;1707931;83;20937;-81
2021/08/30 05:15:23;;;;;;;8.80;6.60;;;;;;;20.68;96.57;100525.83;1693576;84;20905;-89
2021/08/30 05:17:52;;;;;;;7.50;6.05;;;;;;;20.72;96.34;100525.80;1707899;84;21404;-85
2021/08/30 05:20:20;;;;;;;10.53;5.67;;;;;;;20.78;96.02;100528.58;1707400;83;21174;-86
2021/08/30 05:22:48;;;;;;;7.42;6.65;;;;;;;20.86;95.84;100521.97;1707729;84;20956;-87
2021/08/30 05:25:14;;;;;;;8.65;6.53;;;;;;;20.98;95.26;100529.83;1707810;84;21156;-85
2021/08/30 05:27:43;;;;;;;6.90;6.12;;;;;;;21.10;94.41;100530.30;1707755;84;20948;-89
2021/08/30 05:30:12;;;;;;;12.35;6.60;;;;;;;21.20;93.54;100527.44;1707882;83;20972;-91
2021/08/30 05:32:39;;;;;;;10.60;6.35;;;;;;;21.30;92.11;100531.52;1707578;83;20989;-85
2021/08/30 05:35:06;;;;;;;7.60;5.92;;;;;;;21.42;91.20;100527.98;1707881;84;20992;-83
2021/08/30 05:37:33;;;;;;;11.18;6.97;;;;;;;21.46;90.06;100520.04;1707879;83;21822;-90
2021/08/30 05:40:00;;;;;;;8.73;6.15;;;;;;;21.50;90.18;100523.98;1708060;84;20866;-82
2021/08/30 05:42:26;;;;;;;13.43;6.92;;;;;;;21.54;89.34;100512.05;1707748;84;21004;-79
2021/08/30 05:44:53;;;;;;;15.83;6.47;;;;;;;21.54;88.83;100510.73;1707834;84;20969;-85
2021/08/30 05:47:23;;;;;;;10.18;7.17;;;;;;;21.56;89.25;100508.76;1707687;83;21027;-93
2021/08/30 05:49:49;;;;;;;13.30;8.05;;;;;;;21.59;88.63;100516.33;1708139;83;21732;-78
2021/08/30 05:52:15;;;;;;;11.25;7.15;;;;;;;21.61;88.58;100519.60;1707716;84;20953;-87
2021/08/30 05:54:45;;;;;;;9.98;7.17;;;;;;;21.64;88.33;100524.04;1707289;83;20948;-92
2021/08/30 05:57:13;;;;;;;12.88;7.58;;;;;;;21.69;88.00;100525.34;1707033;84;21083;-79
2021/08/30 05:59:41;;;;;;;8.80;6.33;;;;;;;21.72;88.20;100540.83;1705440;83;20962;-83
2021/08/30 06:02:14;;;;;;;9.65;6.65;;;;;;;21.74;87.33;100536.19;1697995;84;21312;-88
2021/08/30 06:04:43;;;;;;;10.38;6.17;;;;;;;21.69;86.48;100533.27;1705815;84;21080;-83
2021/08/30 06:07:09;;;;;;;8.53;6.90;;;;;;;21.67;86.61;100541.84;1705296;84;21001;-80
2021/08/30 06:09:36;;;;;;;9.85;7.17;;;;;;;21.62;86.77;100541.89;1705724;84;21054;-80
2021/08/30 06:12:06;;;;;;;8.30;7.50;;;;;;;21.62;87.25;100542.38;1705350;84;20918;-91
2021/08/30 06:14:34;;;;;;;7.83;7.03;;;;;;;21.66;87.12;100546.33;1698639;84;21071;-86
2021/08/30 06:17:04;;;;;;;8.75;6.75;;;;;;;21.68;87.04;100548.78;1705435;84;21079;-84
2021/08/30 06:19:35;;;;;;;8.20;6.75;;;;;;;21.71;86.80;100541.82;1706509;84;20925;-86
2021/08/30 06:22:08;;;;;;;10.80;7.10;;;;;;;21.72;86.59;100545.63;1705786;84;20917;-85
2021/08/30 06:24:40;;;;;;;8.63;7.03;;;;;;;21.76;86.31;100550.85;1691573;84;20962;-86
2021/08/30 06:27:08;;;;;;;10.30;7.17;;;;;;;21.80;86.55;100544.23;1689417;84;21169;-84
2021/08/30 06:29:39;;;;;;;10.30;7.33;;;;;;;21.86;86.42;100546.66;1697253;84;20969;-87
2021/08/30 06:32:08;;;;;;;10.60;6.55;;;;;;;21.92;86.07;100544.69;1696671;84;21031;-87
2021/08/30 06:34:38;;;;;;;8.08;6.90;;;;;;;21.94;85.09;100540.03;1679525;85;21116;-83
2021/08/30 06:37:05;;;;;;;9.83;6.72;;;;;;;21.97;84.68;100538.36;1677011;85;21116;-86
2021/08/30 06:39:32;;;;;;;12.45;7.12;;;;;;;22.00;85.05;100549.89;1673981;84;21832;-82
2021/08/30 06:42:00;;;;;;;7.97;7.25;;;;;;;22.08;84.89;100552.48;1690588;84;21612;-86
2021/08/30 06:44:28;;;;;;;10.45;7.37;;;;;;;22.15;84.67;100552.90;1669214;84;21061;-91
2021/08/30 06:46:56;;;;;;;9.75;7.03;;;;;;;22.25;84.01;100557.11;1685723;84;21580;-82
2021/08/30 06:49:23;;;;;;;10.65;7.28;;;;;;;22.34;83.32;100559.99;1691351;84;20979;-81
2021/08/30 06:51:52;;;;;;;14.40;7.92;;;;;;;22.40;82.67;100559.30;1694113;84;21060;-79
2021/08/30 06:54:20;;;;;;;13.28;8.03;;;;;;;22.43;82.30;100562.38;1695242;84;21643;-87
2021/08/30 06:56:49;;;;;;;10.28;7.67;;;;;;;22.45;81.87;100567.51;1679810;84;21065;-84
2021/08/30 06:59:17;;;;;;;13.70;7.72;;;;;;;22.48;82.10;100573.27;1681665;84;21525;-81
2021/08/30 07:01:44;;;;;;;9.30;7.42;;;;;;;22.54;81.80;100568.56;1698762;84;21665;-84
2021/08/30 07:04:12;;;;;;;10.98;7.47;;;;;;;22.61;82.46;100565.53;1693209;84;21156;-82
2021/08/30 07:06:39;;;;;;;8.20;7.00;;;;;;;22.70;82.21;100568.93;1705096;84;21068;-85
2021/08/30 07:09:11;;;;;;;10.80;7.03;;;;;;;22.73;81.76;100568.56;1675869;84;21005;-87
2021/08/30 07:11:39;;;;;;;10.58;7.25;;;;;;;22.78;82.38;100565.39;1694220;84;21135;-88
2021/08/30 07:14:06;;;;;;;9.55;7.53;;;;;;;22.87;80.76;100575.70;1698705;84;20966;-85
2021/08/30 07:16:34;;;;;;;10.58;7.33;;;;;;;22.90;80.70;100575.33;1694892;84;21148;-90
2021/08/30 07:19:04;;;;;;;13.50;7.40;;;;;;;22.92;79.94;100568.02;1690006;84;20862;-88
2021/08/30 07:21:34;;;;;;;8.05;6.83;;;;;;;22.95;79.93;100570.80;1694984;84;20959;-85
2021/08/30 07:24:01;;;;;;;10.28;7.28;;;;;;;23.02;79.92;100573.86;1678389;85;20930;-88
2021/08/30 07:26:29;;;;;;;9.50;6.90;;;;;;;23.14;77.66;100578.17;1679466;84;36047;-83
2021/08/30 07:28:56;;;;;;;12.18;6.45;;;;;;;23.23;77.32;100576.27;1700856;84;21135;-87
2021/08/30 07:31:23;;;;;;;12.43;7.62;;;;;;;23.31;76.34;100572.17;1705642;84;20942;-84
2021/08/30 07:33:53;;;;;;;10.78;7.47;;;;;;;23.39;75.97;100582.68;1699346;84;21733;-81
2021/08/30 07:36:21;;;;;;;7.92;7.12;;;;;;;23.48;75.88;100581.59;1706001;84;20950;-79
2021/08/30 07:38:48;;;;;;;8.63;7.20;;;;;;;23.59;74.95;100580.59;1699340;84;21021;-85
2021/08/30 07:41:15;;;;;;;11.33;7.20;;;;;;;23.68;74.28;100579.46;1706224;84;22127;-82
2021/08/30 07:43:45;;;;;;;7.80;6.97;;;;;;;23.74;72.55;100577.09;1706341;84;20926;-86
2021/08/30 07:46:12;;;;;;;10.63;7.75;;;;;;;23.81;72.06;100581.92;1686956;84;21066;-78
2021/08/30 07:48:41;;;;;;;7.60;6.80;;;;;;;23.88;71.69;100590.27;1696296;84;21279;-79
2021/08/30 07:51:08;;;;;;;9.15;6.80;;;;;;;23.94;70.67;100589.51;1687156;84;21122;-85
2021/08/30 07:53:40;;;;;;;6.87;6.00;;;;;;;23.97;69.53;100577.20;1691505;84;21043;-85
2021/08/30 07:56:10;;;;;;;6.92;5.62;;;;;;;24.00;70.10;100597.20;1685295;84;21536;-84
2021/08/30 07:58:41;;;;;;;13.83;6.72;;;;;;;24.02;69.13;100598.67;1688444;83;20987;-86
2021/08/30 08:01:10;;;;;;;10.80;5.53;;;;;;;24.08;68.97;100603.72;1677778;84;21071;-88
2021/08/30 08:03:36;;;;;;;8.65;6.45;;;;;;;24.17;69.14;100584.87;1677561;85;20975;-80
2021/08/30 08:06:03;;;;;;;9.35;6.10;;;;;;;24.31;69.68;100593.77;1677189;84;21142;-77
2021/08/30 08:08:30;;;;;;;7.70;5.85;;;;;;;24.33;70.13;100593.05;1675784;84;21085;-83
2021/08/30 08:10:59;;;;;;;7.85;6.40;;;;;;;24.41;69.93;100587.59;1666216;85;20990;-77
2021/08/30 08:13:27;;;;;;;10.18;6.47;;;;;;;24.43;69.91;100597.53;1675718;84;21062;-84
2021/08/30 08:15:56;;;;;;;6.28;5.67;;;;;;;24.41;69.66;100594.22;1677431;84;21002;-82
2021/08/30 08:18:23;;;;;;;9.05;5.00;;;;;;;24.45;69.02;100588.03;1678309;84;21152;-82
2021/08/30 08:20:52;;;;;;;7.67;4.85;;;;;;;24.50;67.60;100596.25;1677656;85;21061;-87
2021/08/30 08:23:21;;;;;;;4.33;3.90;;;;;;;24.53;67.21;100599.34;1677369;85;21156;-87
2021/08/30 08:25:50;;;;;;;6.12;3.60;;;;;;;24.67;66.31;100602.88;1677779;84;21034;-79
2021/08/30 08:28:20;;;;;;;5.30;4.10;;;;;;;24.75;65.92;100591.63;1676980;85;21631;-83
2021/08/30 08:30:50;;;;;;;8.43;4.22;;;;;;;24.78;64.02;100593.07;1677845;85;21132;-80
2021/08/30 08:33:19;;;;;;;6.22;4.12;;;;;;;24.76;64.74;100593.25;1677021;85;21743;-84
2021/08/30 08:35:46;;;;;;;8.40;4.90;;;;;;;24.80;64.78;100585.72;1677483;85;21002;-91
2021/08/30 08:38:13;;;;;;;5.80;4.25;;;;;;;24.85;64.80;100595.30;1676702;85;20927;-88
2021/08/30 08:40:46;;;;;;;11.70;4.45;;;;;;;24.94;65.10;100587.98;1655720;85;20978;-84
2021/08/30 08:43:16;;;;;;;7.47;4.97;;;;;;;25.04;63.88;100587.95;1676568;84;21576;-82
2021/08/30 08:45:47;;;;;;;7.95;4.87;;;;;;;25.06;64.25;100597.86;1676619;85;21077;-81
2021/08/30 08:48:20;;;;;;;7.33;4.80;;;;;;;25.08;64.13;100593.16;1676326;85;21017;-78
2021/08/30 08:50:51;;;;;;;10.30;4.42;;;;;;;25.09;63.79;100596.64;1677010;85;20962;-83
2021/08/30 08:53:32;;;;;;;8.28;4.65;;;;;;;25.11;64.12;100594.09;1677295;85;21121;-89
2021/08/30 08:56:01;;;;;;;6.55;4.75;;;;;;;25.17;63.09;100593.33;1677448;84;21166;-84
2021/08/30 08:58:40;;;;;;;10.25;4.65;;;;;;;25.19;63.12;100594.44;1676002;83;20982;-80
2021/08/30 09:01:27;;;;;;;10.35;5.08;;;;;;;25.25;62.51;100595.80;1686217;83;22015;-91
2021/08/30 09:04:07;;;;;;;6.80;5.12;;;;;;;25.35;63.20;100587.47;1650271;85;21014;-85
2021/08/30 09:06:42;;;;;;;6.12;4.80;;;;;;;25.51;62.75;100592.45;1666636;85;21157;-85
2021/08/30 09:09:14;;;;;;;8.25;4.80;;;;;;;25.62;62.19;100596.39;1663773;85;21161;-92
2021/08/30 09:11:46;;;;;;;6.42;4.05;;;;;;;25.69;62.60;100593.20;1662880;85;21643;-84
2021/08/30 09:14:24;;;;;;;5.55;4.87;;;;;;;25.73;61.67;100593.95;1674567;85;21448;-85
2021/08/30 09:17:12;;;;;;;7.65;4.78;;;;;;;25.74;61.32;100595.59;1664999;85;21054;-81
2021/08/30 09:19:40;;;;;;;8.98;5.10;;;;;;;25.78;61.66;100598.14;1639454;86;20895;-79
2021/08/30 09:22:08;;;;;;;6.72;5.00;;;;;;;25.89;62.90;100610.54;1662903;85;21952;-83
2021/08/30 09:24:35;;;;;;;7.42;5.10;;;;;;;25.89;61.21;100601.23;1648352;86;21618;-85
2021/08/30 09:27:11;;;;;;;7.22;4.90;;;;;;;25.82;61.96;100595.91;1665614;85;21445;-82
2021/08/30 09:29:40;;;;;;;11.22;8.10;;;;;;;25.85;61.48;100592.05;1684889;84;21110;-80
2021/08/30 09:32:17;;;;;;;7.55;6.25;;;;;;;25.78;61.99;100603.45;1681330;84;20976;-85
2021/08/30 09:34:47;;;;;;;8.45;4.72;;;;;;;25.86;61.75;100602.46;1701813;84;21982;-78
2021/08/30 09:37:22;;;;;;;6.70;4.45;;;;;;;25.91;61.21;100603.20;1690880;83;21069;-87
2021/08/30 09:39:58;;;;;;;6.53;4.80;;;;;;;25.86;61.61;100613.09;1702711;84;21510;-80
2021/08/30 09:42:27;;;;;;;8.83;5.00;;;;;;;25.90;60.86;100616.17;1693791;84;21053;-82
2021/08/30 09:45:07;;;;;;;9.45;5.55;;;;;;;25.92;61.25;100608.80;1696207;84;21008;-84
2021/08/30 09:47:34;;;;;;;6.03;5.12;;;;;;;26.05;61.27;100620.29;1655211;85;21158;-87
2021/08/30 09:50:01;;;;;;;7.75;4.92;;;;;;;26.13;60.39;100620.08;1699101;84;21511;-91
2021/08/30 09:52:28;;;;;;;7.25;5.90;;;;;;;26.20;60.19;100620.94;1699000;84;21134;-82
2021/08/30 09:54:56;;;;;;;4.83;4.33;;;;;;;26.37;59.77;100628.52;1701102;84;21087;-83
2021/08/30 09:57:25;;;;;;;10.13;5.12;;;;;;;26.57;59.66;100617.38;1705936;84;21013;-82
2021/08/30 09:59:54;;;;;;;5.45;4.83;;;;;;;27.32;57.24;100624.29;1709315;82;21606;-81
2021/08/30 10:02:30;;;;;;;5.40;4.60;;;;;;;28.20;54.40;100621.30;1688119;83;21321;-85
2021/08/30 10:05:03;;;;;;;7.78;4.75;;;;;;;28.93;53.38;100608.12;1715941;83;21001;-86
2021/08/30 10:07:31;;;;;;;8.08;5.10;;;;;;;29.80;50.15;100615.66;1715887;83;21000;-83
2021/08/30 10:09:58;;;;;;;5.50;5.00;;;;;;;30.38;48.14;100626.53;1693076;83;20994;-82
2021/08/30 10:12:27;;;;;;;5.20;4.33;;;;;;;30.85;47.19;100623.91;1671484;83;21002;-86
2021/08/30 10:14:54;;;;;;;8.58;4.55;;;;;;;31.44;46.55;100620.05;1703058;83;21550;-80
2021/08/30 10:17:23;;;;;;;6.33;4.87;;;;;;;31.87;44.23;100622.24;1689494;83;21129;-84
2021/08/30 10:20:00;;;;;;;6.30;4.80;;;;;;;31.56;44.36;100620.06;1698541;83;21013;-85
2021/08/30 10:22:26;;;;;;;6.50;5.20;;;;;;;31.58;44.83;100618.77;1716605;83;21020;-85
2021/08/30 10:24:54;;;;;;;7.15;4.83;;;;;;;31.74;44.55;100619.33;1703035;83;21150;-81
2021/08/30 10:27:34;;;;;;;6.03;4.75;;;;;;;31.80;44.37;100621.05;1709754;83;21110;-83
2021/08/30 10:30:11;;;;;;;7.60;4.40;;;;;;;31.61;43.84;100617.46;1703454;83;21109;-86
2021/08/30 10:32:40;;;;;;;4.75;4.15;;;;;;;30.67;45.54;100625.34;1696691;83;21016;-82
2021/08/30 10:35:17;;;;;;;5.42;4.62;;;;;;;29.82;46.94;100631.02;1682382;85;21044;-82
2021/08/30 10:37:50;;;;;;;5.72;4.25;;;;;;;29.30;48.12;100615.63;1706796;83;21207;-84
2021/08/30 10:40:19;;;;;;;6.47;3.90;;;;;;;28.99;49.21;100617.09;1715282;83;21073;-83
2021/08/30 10:43:02;;;;;;;5.92;4.42;;;;;;;28.73;49.52;100628.35;1701668;83;21020;-82
2021/08/30 10:45:35;;;;;;;6.55;5.20;;;;;;;28.33;50.70;100624.38;1701638;83;21500;-88
2021/08/30 10:48:10;;;;;;;8.55;4.50;;;;;;;28.11;51.82;100624.45;1716350;83;21107;-92
2021/08/30 10:50:44;;;;;;;7.42;5.53;;;;;;;28.03;52.65;100627.33;1709913;83;21127;-85
2021/08/30 10:53:16;;;;;;;9.73;4.97;;;;;;;27.91;53.21;100621.88;1686060;83;21596;-79
2021/08/30 10:55:47;;;;;;;14.78;10.50;;;;;;;27.80;53.80;100627.88;1675219;84;20975;-79
2021/08/30 10:58:25;;;;;;;10.50;7.35;;;;;;;27.72;53.82;100623.63;1703938;83;21542;-80
2021/08/30 11:00:55;;;;;;;8.03;6.05;;;;;;;27.71;53.78;100621.16;1710289;83;21040;-83
2021/08/30 11:03:35;;;;;;;6.08;5.47;;;;;;;27.69;53.88;100624.06;1706340;83;21081;-81
2021/08/30 11:06:10;;;;;;;9.65;8.35;;;;;;;27.69;53.63;100621.91;1696538;84;20901;-84
2021/08/30 11:08:40;;;;;;;14.15;12.03;;;;;;;27.76;53.34;100616.03;1696749;84;21095;-83
2021/08/30 11:11:23;;;;;;;9.40;6.67;;;;;;;27.82;53.79;100619.17;1706703;83;21024;-81
2021/08/30 11:14:03;;;;;;;6.47;5.87;;;;;;;27.84;53.26;100628.58;1709050;84;20985;-86
2021/08/30 11:16:31;;;;;;;12.55;8.20;;;;;;;27.79;53.62;100624.93;1706793;84;21171;-85
2021/08/30 11:19:05;;;;;;;6.75;5.92;;;;;;;27.83;54.16;100622.94;1707362;83;20933;-82
2021/08/30 11:21:55;;;;;;;8.08;6.12;;;;;;;27.91;53.65;100625.88;1707900;84;21491;-89
2021/08/30 11:24:41;;;;;;;9.85;7.47;;;;;;;27.98;53.51;100622.66;1707505;83;21066;-92
2021/08/30 11:27:16;;;;;;;11.50;6.60;;;;;;;28.05;52.85;100631.95;1708083;84;20972;-85
2021/08/30 11:29:50;;;;;;;7.53;6.47;;;;;;;27.90;52.47;100630.90;1707698;83;21135;-81
2021/08/30 11:32:22;;;;;;;8.43;7.05;;;;;;;27.81;52.60;100625.02;1707685;84;20984;-90
2021/08/30 11:34:49;;;;;;;9.15;7.17;;;;;;;27.86;52.59;100631.02;1707816;84;20977;-81